createdAt,value
2023-02-15T00:00:21.729Z,27.70
2023-02-15T00:02:42.938Z,27.40
2023-02-15T00:05:04.310Z,28.10
2023-02-15T00:07:25.503Z,27.67
2023-02-15T00:09:47.262Z,32.90
2023-02-15T00:12:08.482Z,38.13
2023-02-15T00:14:30.261Z,38.10
2023-02-15T00:16:54.154Z,43.73
2023-02-15T00:19:16.221Z,34.93
2023-02-15T00:21:37.749Z,38.30
2023-02-15T00:23:59.780Z,34.40
2023-02-15T00:26:20.797Z,33.37
2023-02-15T00:28:42.133Z,29.73
2023-02-15T00:31:07.406Z,29.20
2023-02-15T00:33:29.653Z,32.00
2023-02-15T00:35:57.450Z,30.53
2023-02-15T00:38:18.774Z,27.73
2023-02-15T00:40:40.195Z,28.87
2023-02-15T00:43:01.784Z,31.03
2023-02-15T00:45:23.179Z,28.37
2023-02-15T00:47:44.194Z,31.93
2023-02-15T00:50:08.049Z,34.40
2023-02-15T00:52:28.900Z,35.13
2023-02-15T00:54:50.098Z,36.70
2023-02-15T00:57:11.311Z,37.13
2023-02-15T00:59:32.595Z,37.43
2023-02-15T01:01:53.838Z,37.33
2023-02-15T01:04:15.072Z,35.83
2023-02-15T01:06:38.876Z,33.83
2023-02-15T01:09:00.218Z,31.10
2023-02-15T01:11:23.733Z,31.53
2023-02-15T01:13:44.664Z,30.07
2023-02-15T01:16:06.231Z,28.93
2023-02-15T01:18:28.465Z,32.83
2023-02-15T01:20:50.020Z,30.33
2023-02-15T01:23:12.687Z,30.87
2023-02-15T01:25:34.966Z,29.53
2023-02-15T01:27:56.125Z,29.50
2023-02-15T01:30:17.835Z,26.07
2023-02-15T01:32:39.061Z,25.83
2023-02-15T01:35:00.179Z,27.40
2023-02-15T01:37:21.502Z,27.90
2023-02-15T01:39:44.096Z,28.30
2023-02-15T01:42:05.525Z,26.57
2023-02-15T01:44:46.307Z,30.00
2023-02-15T01:47:07.523Z,29.00
2023-02-15T01:49:29.401Z,28.43
2023-02-15T01:51:52.171Z,31.27
2023-02-15T01:54:22.883Z,28.17
2023-02-15T01:56:45.479Z,28.83
2023-02-15T01:59:07.865Z,27.43
2023-02-15T02:01:29.480Z,27.03
2023-02-15T02:03:57.092Z,29.13
2023-02-15T02:06:19.021Z,28.10
2023-02-15T02:08:40.432Z,29.83
2023-02-15T02:11:01.517Z,30.80
2023-02-15T02:13:24.401Z,28.33
2023-02-15T02:15:49.949Z,27.67
2023-02-15T02:18:17.009Z,28.60
2023-02-15T02:20:51.702Z,27.67
2023-02-15T02:23:26.351Z,32.13
2023-02-15T02:26:08.366Z,30.83
2023-02-15T02:28:44.374Z,29.07
2023-02-15T02:31:22.692Z,29.40
2023-02-15T02:33:49.274Z,31.57
2023-02-15T02:36:16.813Z,28.23
2023-02-15T02:38:44.002Z,30.03
2023-02-15T02:41:11.537Z,31.97
2023-02-15T02:43:35.216Z,29.37
2023-02-15T02:45:59.749Z,27.80
2023-02-15T02:48:21.961Z,26.80
2023-02-15T02:50:44.281Z,31.27
2023-02-15T02:53:05.498Z,26.37
2023-02-15T02:55:29.579Z,25.07
2023-02-15T02:57:55.203Z,28.30
2023-02-15T03:00:17.629Z,34.30
2023-02-15T03:02:39.977Z,26.40
2023-02-15T03:05:07.298Z,27.93
2023-02-15T03:07:31.123Z,27.87
2023-02-15T03:09:53.597Z,26.97
2023-02-15T03:12:16.402Z,29.43
2023-02-15T03:14:37.870Z,28.33
2023-02-15T03:16:59.661Z,27.90
2023-02-15T03:19:24.885Z,29.23
2023-02-15T03:21:58.444Z,29.00
2023-02-15T03:24:22.656Z,29.40
2023-02-15T03:26:45.256Z,30.27
2023-02-15T03:29:07.636Z,27.27
2023-02-15T03:31:31.982Z,28.77
2023-02-15T03:33:55.669Z,27.37
2023-02-15T03:36:20.867Z,26.10
2023-02-15T03:38:45.121Z,27.13
2023-02-15T03:41:11.724Z,26.50
2023-02-15T03:43:34.695Z,28.10
2023-02-15T03:45:58.664Z,27.43
2023-02-15T03:48:20.028Z,27.23
2023-02-15T03:50:59.033Z,26.20
2023-02-15T03:53:23.124Z,26.07
2023-02-15T03:55:44.215Z,26.73
2023-02-15T03:58:24.435Z,27.17
2023-02-15T04:01:07.727Z,27.47
2023-02-15T04:03:33.248Z,29.70
2023-02-15T04:05:54.503Z,28.10
2023-02-15T04:08:15.723Z,28.87
2023-02-15T04:10:54.467Z,29.53
2023-02-15T04:13:17.118Z,28.53
2023-02-15T04:15:55.743Z,27.33
2023-02-15T04:18:16.957Z,30.63
2023-02-15T04:20:55.804Z,29.93
2023-02-15T04:23:34.715Z,28.90
2023-02-15T04:25:55.998Z,32.93
2023-02-15T04:28:18.567Z,36.60
2023-02-15T04:30:39.866Z,30.77
2023-02-15T04:33:01.138Z,28.27
2023-02-15T04:35:23.292Z,30.70
2023-02-15T04:37:44.922Z,28.60
2023-02-15T04:40:06.564Z,27.47
2023-02-15T04:42:27.803Z,27.33
2023-02-15T04:44:50.120Z,27.37
2023-02-15T04:47:11.433Z,28.13
2023-02-15T04:49:32.807Z,27.83
2023-02-15T04:51:54.171Z,25.23
2023-02-15T04:54:15.466Z,26.53
2023-02-15T04:56:38.686Z,25.87
2023-02-15T04:58:59.898Z,22.77
2023-02-15T05:01:22.664Z,25.73
2023-02-15T05:03:43.870Z,28.40
2023-02-15T05:06:05.645Z,26.47
2023-02-15T05:08:26.929Z,26.90
2023-02-15T05:10:49.553Z,28.63
2023-02-15T05:13:10.578Z,27.60
2023-02-15T05:15:31.636Z,30.00
2023-02-15T05:17:54.265Z,28.83
2023-02-15T05:20:15.510Z,27.50
2023-02-15T05:22:36.916Z,25.60
2023-02-15T05:25:15.710Z,25.30
2023-02-15T05:27:54.772Z,27.33
2023-02-15T05:30:16.201Z,27.37
2023-02-15T05:32:37.425Z,29.67
2023-02-15T05:35:00.082Z,31.17
2023-02-15T05:37:21.542Z,27.63
2023-02-15T05:39:42.454Z,26.27
2023-02-15T05:42:03.611Z,29.30
2023-02-15T05:44:25.135Z,34.13
2023-02-15T05:46:46.286Z,29.53
2023-02-15T05:49:07.534Z,31.13
2023-02-15T05:51:30.222Z,31.57
2023-02-15T05:53:51.278Z,34.03
2023-02-15T05:56:13.189Z,33.93
2023-02-15T05:58:35.332Z,31.10
2023-02-15T06:00:56.774Z,39.33
2023-02-15T06:03:17.866Z,34.07
2023-02-15T06:05:39.197Z,35.50
2023-02-15T06:08:02.170Z,35.03
2023-02-15T06:10:23.550Z,30.07
2023-02-15T06:12:45.840Z,34.40
2023-02-15T06:15:07.416Z,33.10
2023-02-15T06:17:28.396Z,34.77
2023-02-15T06:19:50.118Z,33.17
2023-02-15T06:22:11.492Z,31.33
2023-02-15T06:24:34.059Z,32.17
2023-02-15T06:26:55.437Z,28.93
2023-02-15T06:29:16.711Z,30.07
2023-02-15T06:31:38.277Z,28.90
2023-02-15T06:34:02.005Z,29.47
2023-02-15T06:36:23.027Z,31.60
2023-02-15T06:38:44.407Z,30.33
2023-02-15T06:41:07.153Z,30.00
2023-02-15T06:43:28.471Z,31.30
2023-02-15T06:45:49.654Z,29.90
2023-02-15T06:48:12.137Z,26.40
2023-02-15T06:50:33.205Z,27.17
2023-02-15T06:52:57.297Z,28.50
2023-02-15T06:55:18.261Z,28.40
2023-02-15T06:57:40.809Z,29.63
2023-02-15T07:00:02.314Z,30.73
2023-02-15T07:02:23.439Z,26.30
2023-02-15T07:04:44.822Z,28.20
2023-02-15T07:07:06.519Z,31.60
2023-02-15T07:09:28.107Z,34.03
2023-02-15T07:12:06.554Z,32.90
2023-02-15T07:14:29.185Z,33.40
2023-02-15T07:16:50.481Z,31.47
2023-02-15T07:19:11.742Z,30.67
2023-02-15T07:21:32.866Z,31.30
2023-02-15T07:23:54.661Z,32.70
2023-02-15T07:26:15.573Z,31.80
2023-02-15T07:28:37.148Z,29.60
2023-02-15T07:31:00.504Z,28.10
2023-02-15T07:33:24.848Z,28.07
2023-02-15T07:35:50.415Z,28.30
2023-02-15T07:38:11.554Z,26.80
2023-02-15T07:40:32.707Z,25.93
2023-02-15T07:42:55.646Z,27.53
2023-02-15T07:45:17.164Z,26.10
2023-02-15T07:47:39.653Z,25.60
2023-02-15T07:50:00.899Z,27.53
2023-02-15T07:52:22.286Z,27.07
2023-02-15T07:54:43.732Z,26.27
2023-02-15T07:57:05.115Z,31.50
2023-02-15T07:59:26.428Z,28.33
2023-02-15T08:01:47.671Z,29.57
2023-02-15T08:04:12.081Z,27.17
2023-02-15T08:06:34.191Z,24.73
2023-02-15T08:08:58.712Z,27.20
2023-02-15T08:11:37.435Z,24.97
2023-02-15T08:14:00.348Z,26.37
2023-02-15T08:16:22.437Z,24.83
2023-02-15T08:18:43.432Z,29.37
2023-02-15T08:21:06.495Z,25.53
2023-02-15T08:23:27.711Z,23.67
2023-02-15T08:25:49.034Z,26.50
2023-02-15T08:28:10.360Z,27.53
2023-02-15T08:30:32.131Z,26.80
2023-02-15T08:32:53.843Z,26.03
2023-02-15T08:35:15.071Z,27.47
2023-02-15T08:37:37.689Z,25.20
2023-02-15T08:39:58.944Z,23.20
2023-02-15T08:42:21.613Z,25.00
2023-02-15T08:44:43.008Z,28.43
2023-02-15T08:47:04.988Z,27.97
2023-02-15T08:49:26.623Z,28.67
2023-02-15T08:51:48.342Z,26.33
2023-02-15T08:54:12.189Z,28.03
2023-02-15T08:56:35.049Z,29.67
2023-02-15T08:58:56.757Z,27.40
2023-02-15T09:01:19.082Z,28.60
2023-02-15T09:03:40.474Z,27.63
2023-02-15T09:06:01.989Z,25.73
2023-02-15T09:08:23.025Z,25.47
2023-02-15T09:10:45.662Z,27.10
2023-02-15T09:13:06.942Z,27.20
2023-02-15T09:15:28.172Z,27.53
2023-02-15T09:17:49.585Z,27.80
2023-02-15T09:20:11.089Z,25.27
2023-02-15T09:22:32.213Z,24.63
2023-02-15T09:24:53.496Z,26.23
2023-02-15T09:27:16.065Z,22.60
2023-02-15T09:29:37.431Z,25.53
2023-02-15T09:31:58.816Z,23.00
2023-02-15T09:34:21.274Z,22.87
2023-02-15T09:36:42.377Z,24.00
2023-02-15T09:39:06.868Z,23.40
2023-02-15T09:41:46.019Z,20.17
2023-02-15T09:44:16.104Z,19.33
2023-02-15T09:46:43.852Z,20.93
2023-02-15T09:49:10.799Z,21.40
2023-02-15T09:51:38.870Z,20.33
2023-02-15T09:54:16.056Z,20.00
2023-02-15T09:56:40.299Z,21.67
2023-02-15T09:59:06.010Z,20.87
2023-02-15T10:01:33.138Z,21.83
2023-02-15T10:04:01.535Z,18.90
2023-02-15T10:06:33.855Z,19.17
2023-02-15T10:09:07.532Z,23.93
2023-02-15T10:11:42.692Z,19.50
2023-02-15T10:14:10.573Z,20.00
2023-02-15T10:16:38.772Z,17.00
2023-02-15T10:19:05.303Z,17.23
2023-02-15T10:21:32.639Z,19.17
2023-02-15T10:24:03.275Z,21.10
2023-02-15T10:26:27.619Z,21.10
2023-02-15T10:28:50.880Z,18.30
2023-02-15T10:31:15.101Z,24.03
2023-02-15T10:33:41.353Z,23.03
2023-02-15T10:36:08.064Z,18.63
2023-02-15T10:38:33.525Z,20.50
2023-02-15T10:41:01.579Z,23.03
2023-02-15T10:43:27.500Z,24.40
2023-02-15T10:45:52.199Z,19.80
2023-02-15T10:48:25.944Z,19.33
2023-02-15T10:50:51.529Z,20.60
2023-02-15T10:53:21.930Z,19.77
2023-02-15T10:55:47.645Z,20.10
2023-02-15T10:58:14.417Z,17.17
2023-02-15T11:00:39.316Z,18.40
2023-02-15T11:03:10.832Z,17.53
2023-02-15T11:05:37.517Z,16.97
2023-02-15T11:08:01.463Z,18.00
2023-02-15T11:10:28.582Z,16.20
2023-02-15T11:12:50.654Z,17.83
2023-02-15T11:15:17.282Z,18.17
2023-02-15T11:17:40.352Z,17.13
2023-02-15T11:20:05.462Z,17.60
2023-02-15T11:22:26.894Z,17.13
2023-02-15T11:24:49.623Z,17.17
2023-02-15T11:27:18.440Z,17.80
2023-02-15T11:29:42.427Z,17.63
2023-02-15T11:32:05.567Z,15.17
2023-02-15T11:34:29.374Z,16.27
2023-02-15T11:36:52.408Z,18.47
2023-02-15T11:39:15.061Z,17.60
2023-02-15T11:41:39.913Z,16.33
2023-02-15T11:44:06.791Z,16.93
2023-02-15T11:46:28.451Z,16.63
2023-02-15T11:48:49.872Z,15.97
2023-02-15T11:51:13.745Z,15.80
2023-02-15T11:53:36.923Z,14.33
2023-02-15T11:55:58.102Z,15.97
2023-02-15T11:58:29.182Z,15.47
2023-02-15T12:00:52.126Z,15.07
2023-02-15T12:03:16.249Z,14.17
2023-02-15T12:05:38.132Z,14.73
2023-02-15T12:08:04.903Z,15.47
2023-02-15T12:10:26.856Z,13.17
2023-02-15T12:12:48.261Z,14.63
2023-02-15T12:15:11.949Z,16.50
2023-02-15T12:17:34.828Z,14.17
2023-02-15T12:19:57.526Z,13.90
2023-02-15T12:22:26.015Z,14.30
2023-02-15T12:24:48.340Z,13.87
2023-02-15T12:27:15.857Z,13.93
2023-02-15T12:29:41.281Z,12.80
2023-02-15T12:32:03.949Z,16.03
2023-02-15T12:34:27.561Z,12.93
2023-02-15T12:36:51.687Z,13.90
2023-02-15T12:39:23.177Z,13.03
2023-02-15T12:41:46.747Z,11.13
2023-02-15T12:44:17.129Z,12.83
2023-02-15T12:46:38.579Z,11.30
2023-02-15T12:49:20.588Z,10.43
2023-02-15T12:51:45.366Z,13.63
2023-02-15T12:54:23.466Z,13.60
2023-02-15T12:56:44.735Z,13.80
2023-02-15T12:59:06.879Z,14.03
2023-02-15T13:01:33.574Z,11.97
2023-02-15T13:03:59.923Z,14.07
2023-02-15T13:06:22.809Z,11.97
2023-02-15T13:08:47.921Z,14.53
2023-02-15T13:11:11.070Z,12.10
2023-02-15T13:13:34.330Z,18.40
2023-02-15T13:15:56.785Z,12.80
2023-02-15T13:18:18.391Z,12.40
2023-02-15T13:20:42.066Z,12.10
2023-02-15T13:23:06.244Z,16.70
2023-02-15T13:25:28.957Z,15.53
2023-02-15T13:27:52.364Z,16.03
2023-02-15T13:30:20.742Z,13.73
2023-02-15T13:32:43.435Z,13.40
2023-02-15T13:35:06.592Z,13.53
2023-02-15T13:37:46.688Z,13.20
2023-02-15T13:40:15.488Z,13.77
2023-02-15T13:42:38.747Z,12.00
2023-02-15T13:45:04.677Z,12.37
2023-02-15T13:47:29.773Z,14.87
2023-02-15T13:49:56.780Z,13.37
2023-02-15T13:52:21.606Z,13.57
2023-02-15T13:54:53.811Z,15.87
2023-02-15T13:57:27.108Z,13.53
2023-02-15T13:59:54.556Z,14.50
2023-02-15T14:02:34.820Z,12.60
2023-02-15T14:05:02.674Z,12.80
2023-02-15T14:07:46.678Z,12.73
2023-02-15T14:10:25.053Z,12.70
2023-02-15T14:12:54.767Z,11.33
2023-02-15T14:15:24.090Z,12.00
2023-02-15T14:17:51.378Z,12.27
2023-02-15T14:20:19.588Z,11.00
2023-02-15T14:22:42.848Z,12.00
2023-02-15T14:25:20.874Z,12.57
2023-02-15T14:27:45.536Z,10.73
2023-02-15T14:30:14.946Z,12.80
2023-02-15T14:32:38.779Z,11.33
2023-02-15T14:35:01.481Z,10.97
2023-02-15T14:37:25.611Z,11.17
2023-02-15T14:40:06.854Z,10.40
2023-02-15T14:42:33.522Z,8.73
2023-02-15T14:44:59.929Z,9.00
2023-02-15T14:47:24.561Z,8.97
2023-02-15T14:49:45.773Z,8.87
2023-02-15T14:52:09.301Z,8.77
2023-02-15T14:54:49.550Z,9.90
2023-02-15T14:57:24.609Z,9.13
2023-02-15T14:59:47.559Z,9.33
2023-02-15T15:02:14.093Z,9.30
2023-02-15T15:04:37.704Z,9.87
2023-02-15T15:07:01.190Z,12.47
2023-02-15T15:09:23.965Z,9.20
2023-02-15T15:11:47.120Z,9.20
2023-02-15T15:14:09.923Z,10.00
2023-02-15T15:16:53.201Z,10.23
2023-02-15T15:19:50.807Z,8.97
2023-02-15T15:22:20.602Z,10.30
2023-02-15T15:24:48.911Z,9.40
2023-02-15T15:27:24.899Z,10.17
2023-02-15T15:29:45.938Z,9.63
2023-02-15T15:32:09.644Z,9.87
2023-02-15T15:34:48.759Z,9.70
2023-02-15T15:37:28.644Z,9.50
2023-02-15T15:40:01.450Z,9.23
2023-02-15T15:42:32.270Z,9.87
2023-02-15T15:45:11.940Z,10.87
2023-02-15T15:47:42.286Z,10.73
2023-02-15T15:50:07.344Z,9.57
2023-02-15T15:52:29.530Z,15.30
2023-02-15T15:54:53.408Z,17.20
2023-02-15T15:57:17.817Z,16.97
2023-02-15T15:59:45.252Z,14.53
2023-02-15T16:02:07.087Z,17.80
2023-02-15T16:04:30.707Z,18.17
2023-02-15T16:06:51.909Z,20.37
2023-02-15T16:09:18.719Z,19.67
2023-02-15T16:11:41.479Z,23.73
2023-02-15T16:14:04.276Z,25.00
2023-02-15T16:16:29.024Z,23.13
2023-02-15T16:18:50.721Z,29.07
2023-02-15T16:21:18.399Z,25.57
2023-02-15T16:24:03.507Z,30.47
2023-02-15T16:26:38.783Z,31.80
2023-02-15T16:29:00.435Z,35.37
2023-02-15T16:31:24.320Z,31.70
2023-02-15T16:33:46.381Z,35.33
2023-02-15T16:36:08.810Z,32.53
2023-02-15T16:38:45.800Z,34.70
2023-02-15T16:41:06.822Z,33.83
2023-02-15T16:43:28.913Z,34.83
2023-02-15T16:45:50.206Z,37.70
2023-02-15T16:48:15.679Z,31.00
2023-02-15T16:50:38.392Z,31.00
2023-02-15T16:52:59.564Z,35.30
2023-02-15T16:55:25.070Z,31.57
2023-02-15T16:57:46.372Z,33.33
2023-02-15T17:00:09.688Z,32.80
2023-02-15T17:02:54.436Z,29.00
2023-02-15T17:05:20.790Z,29.87
2023-02-15T17:07:42.755Z,28.13
2023-02-15T17:10:04.405Z,29.40
2023-02-15T17:12:44.385Z,31.43
2023-02-15T17:15:05.585Z,27.97
2023-02-15T17:17:26.867Z,27.87
2023-02-15T17:19:50.014Z,30.63
2023-02-15T17:22:19.474Z,32.23
2023-02-15T17:24:42.342Z,32.07
2023-02-15T17:27:06.067Z,31.50
2023-02-15T17:29:30.739Z,34.17
2023-02-15T17:31:53.415Z,31.30
2023-02-15T17:34:37.901Z,28.53
2023-02-15T17:37:03.341Z,33.60
2023-02-15T17:39:24.574Z,33.73
2023-02-15T17:41:46.285Z,32.33
2023-02-15T17:44:09.386Z,36.40
2023-02-15T17:46:32.877Z,31.17
2023-02-15T17:48:55.701Z,31.87
2023-02-15T17:51:17.358Z,30.90
2023-02-15T17:53:40.630Z,34.13
2023-02-15T17:56:00.740Z,36.77
2023-02-15T17:58:22.431Z,32.67
2023-02-15T18:01:02.312Z,36.07
2023-02-15T18:03:41.326Z,30.50
2023-02-15T18:06:19.959Z,38.40
2023-02-15T18:09:00.091Z,31.23
2023-02-15T18:11:39.989Z,33.63
2023-02-15T18:14:02.177Z,31.13
2023-02-15T18:16:24.806Z,32.70
2023-02-15T18:18:46.362Z,31.43
2023-02-15T18:21:11.994Z,30.87
2023-02-15T18:23:33.394Z,34.60
2023-02-15T18:25:56.006Z,35.77
2023-02-15T18:28:17.627Z,36.00
2023-02-15T18:30:42.359Z,33.63
2023-02-15T18:33:03.883Z,40.13
2023-02-15T18:35:26.352Z,31.67
2023-02-15T18:37:48.145Z,37.47
2023-02-15T18:40:15.308Z,44.37
2023-02-15T18:42:39.648Z,36.20
2023-02-15T18:45:02.860Z,36.87
2023-02-15T18:47:23.950Z,39.03
2023-02-15T18:49:45.106Z,44.87
2023-02-15T18:52:06.589Z,37.70
2023-02-15T18:54:27.425Z,38.30
2023-02-15T18:56:52.525Z,28.77
2023-02-15T18:59:17.591Z,27.97
2023-02-15T19:01:38.735Z,27.57
2023-02-15T19:03:59.919Z,24.93
2023-02-15T19:06:23.089Z,22.10
2023-02-15T19:08:45.265Z,17.57
2023-02-15T19:11:06.420Z,23.87
2023-02-15T19:13:27.392Z,25.20
2023-02-15T19:15:50.025Z,23.57
2023-02-15T19:18:11.710Z,22.43
2023-02-15T19:20:33.774Z,19.17
2023-02-15T19:22:56.299Z,20.03
2023-02-15T19:25:19.941Z,16.23
2023-02-15T19:27:41.211Z,18.67
2023-02-15T19:30:03.770Z,22.93
2023-02-15T19:32:27.957Z,27.17
2023-02-15T19:34:49.144Z,25.83
2023-02-15T19:37:16.888Z,26.93
2023-02-15T19:39:39.436Z,27.73
2023-02-15T19:42:00.577Z,19.70
2023-02-15T19:44:21.913Z,18.33
2023-02-15T19:46:43.252Z,19.10
2023-02-15T19:49:05.890Z,18.83
2023-02-15T19:51:27.758Z,16.67
2023-02-15T19:53:49.450Z,16.33
2023-02-15T19:56:12.266Z,16.83
2023-02-15T19:58:33.705Z,17.23
2023-02-15T20:00:54.950Z,23.43
2023-02-15T20:03:16.563Z,20.73
2023-02-15T20:05:39.384Z,24.13
2023-02-15T20:08:00.939Z,20.43
2023-02-15T20:10:23.717Z,17.67
2023-02-15T20:12:44.954Z,22.97
2023-02-15T20:15:17.513Z,27.07
2023-02-15T20:17:38.924Z,26.83
2023-02-15T20:20:00.733Z,23.57
2023-02-15T20:22:24.927Z,25.50
2023-02-15T20:24:46.030Z,26.50
2023-02-15T20:27:10.954Z,26.93
2023-02-15T20:29:33.047Z,30.60
2023-02-15T20:31:55.590Z,34.53
2023-02-15T20:34:17.145Z,34.93
2023-02-15T20:36:38.988Z,24.57
2023-02-15T20:39:02.550Z,27.30
2023-02-15T20:41:40.487Z,32.80
2023-02-15T20:44:01.582Z,28.37
2023-02-15T20:46:22.836Z,31.57
2023-02-15T20:48:44.044Z,32.17
2023-02-15T20:51:05.764Z,27.23
2023-02-15T20:53:27.262Z,26.30
2023-02-15T20:55:49.620Z,27.43
2023-02-15T20:58:20.014Z,23.53
2023-02-15T21:00:41.506Z,30.23
2023-02-15T21:03:02.832Z,26.03
2023-02-15T21:05:25.434Z,23.50
2023-02-15T21:07:46.809Z,26.17
2023-02-15T21:10:09.089Z,25.60
2023-02-15T21:12:31.845Z,30.67
2023-02-15T21:14:53.141Z,30.07
2023-02-15T21:17:15.327Z,28.30
2023-02-15T21:19:38.521Z,26.07
2023-02-15T21:22:00.951Z,25.97
2023-02-15T21:24:24.234Z,25.37
2023-02-15T21:26:46.769Z,29.90
2023-02-15T21:29:10.484Z,30.90
2023-02-15T21:31:32.333Z,35.43
2023-02-15T21:33:53.790Z,30.57
2023-02-15T21:36:16.099Z,30.97
2023-02-15T21:38:37.326Z,28.57
2023-02-15T21:41:19.033Z,28.57
2023-02-15T21:43:57.767Z,32.73
2023-02-15T21:46:38.570Z,31.83
2023-02-15T21:48:59.585Z,28.73
2023-02-15T21:51:38.378Z,30.37
2023-02-15T21:53:59.817Z,30.87
2023-02-15T21:56:22.028Z,29.43
2023-02-15T21:58:43.514Z,29.23
2023-02-15T22:01:05.713Z,32.27
2023-02-15T22:03:31.306Z,31.50
2023-02-15T22:05:52.677Z,30.63
2023-02-15T22:08:14.163Z,29.63
2023-02-15T22:10:35.033Z,31.07
2023-02-15T22:12:56.557Z,36.33
2023-02-15T22:15:19.100Z,32.20
2023-02-15T22:17:40.314Z,29.30
2023-02-15T22:20:03.602Z,36.50
2023-02-15T22:22:25.936Z,34.73
2023-02-15T22:24:47.120Z,28.87
2023-02-15T22:27:08.368Z,33.07
2023-02-15T22:29:29.398Z,28.00
2023-02-15T22:31:50.915Z,27.37
2023-02-15T22:34:23.799Z,28.90
2023-02-15T22:36:46.192Z,25.70
2023-02-15T22:39:07.350Z,30.23
2023-02-15T22:41:30.492Z,28.57
2023-02-15T22:43:51.558Z,26.03
2023-02-15T22:46:15.627Z,26.57
2023-02-15T22:48:36.729Z,27.37
2023-02-15T22:50:58.160Z,25.13
2023-02-15T22:53:20.534Z,26.93
2023-02-15T22:55:41.746Z,27.23
2023-02-15T22:58:03.196Z,27.03
2023-02-15T23:00:26.605Z,23.73
2023-02-15T23:02:47.737Z,26.67
2023-02-15T23:05:15.303Z,23.63
2023-02-15T23:07:37.267Z,28.13
2023-02-15T23:09:59.646Z,26.37
2023-02-15T23:12:23.981Z,28.77
2023-02-15T23:14:45.619Z,29.63
2023-02-15T23:17:06.742Z,27.83
2023-02-15T23:19:28.860Z,26.77
2023-02-15T23:21:50.341Z,25.57
2023-02-15T23:24:16.380Z,29.30
2023-02-15T23:26:38.982Z,29.80
2023-02-15T23:29:01.165Z,27.33
2023-02-15T23:31:23.686Z,31.07
2023-02-15T23:33:45.419Z,28.87
2023-02-15T23:36:06.885Z,30.73
2023-02-15T23:38:29.061Z,39.03
2023-02-15T23:41:09.116Z,31.70
2023-02-15T23:43:31.786Z,27.73
2023-02-15T23:45:52.615Z,25.80
2023-02-15T23:48:32.092Z,29.73
2023-02-15T23:50:53.209Z,26.50
2023-02-15T23:53:14.398Z,28.40
2023-02-15T23:55:37.327Z,28.30
2023-02-15T23:57:58.719Z,27.33
